sensor_id;sensor_type;location;lat;lon;timestamp;P1;durP1;ratioP1;P2;durP2;ratioP2
7977;SDS011;4034;48.004;10.902;2022-09-09T00:00:22;1.80;;;1.70;;
7977;SDS011;4034;48.004;10.902;2022-09-09T00:03:34;3.57;;;1.47;;
7977;SDS011;4034;48.004;10.902;2022-09-09T00:05:41;1.83;;;1.73;;
7977;SDS011;4034;48.004;10.902;2022-09-09T00:08:12;1.60;;;1.50;;
7977;SDS011;4034;48.004;10.902;2022-09-09T00:10:41;1.37;;;1.27;;
7977;SDS011;4034;48.004;10.902;2022-09-09T00:15:41;2.27;;;1.63;;
7977;SDS011;4034;48.004;10.902;2022-09-09T00:20:42;2.07;;;1.97;;
7977;SDS011;4034;48.004;10.902;2022-09-09T00:28:19;1.53;;;1.40;;
7977;SDS011;4034;48.004;10.902;2022-09-09T00:30:45;2.07;;;1.63;;
7977;SDS011;4034;48.004;10.902;2022-09-09T00:33:16;1.90;;;1.50;;
7977;SDS011;4034;48.004;10.902;2022-09-09T00:36:01;1.53;;;1.53;;
7977;SDS011;4034;48.004;10.902;2022-09-09T00:38:37;3.47;;;1.43;;
7977;SDS011;4034;48.004;10.902;2022-09-09T00:43:35;3.90;;;1.83;;
7977;SDS011;4034;48.004;10.902;2022-09-09T00:49:04;3.83;;;1.80;;
7977;SDS011;4034;48.004;10.902;2022-09-09T00:51:42;2.60;;;1.60;;
7977;SDS011;4034;48.004;10.902;2022-09-09T00:54:12;1.63;;;1.40;;
7977;SDS011;4034;48.004;10.902;2022-09-09T00:56:58;2.53;;;1.50;;
7977;SDS011;4034;48.004;10.902;2022-09-09T01:01:54;2.10;;;1.40;;
7977;SDS011;4034;48.004;10.902;2022-09-09T01:04:23;1.63;;;1.53;;
7977;SDS011;4034;48.004;10.902;2022-09-09T01:06:54;2.23;;;1.60;;
7977;SDS011;4034;48.004;10.902;2022-09-09T01:09:27;3.53;;;1.73;;
7977;SDS011;4034;48.004;10.902;2022-09-09T01:14:35;1.83;;;1.73;;
7977;SDS011;4034;48.004;10.902;2022-09-09T01:19:40;2.50;;;1.60;;
7977;SDS011;4034;48.004;10.902;2022-09-09T01:27:28;3.53;;;1.20;;
7977;SDS011;4034;48.004;10.902;2022-09-09T01:29:54;1.67;;;1.33;;
7977;SDS011;4034;48.004;10.902;2022-09-09T01:35:07;1.67;;;1.37;;
7977;SDS011;4034;48.004;10.902;2022-09-09T01:37:34;1.37;;;1.27;;
7977;SDS011;4034;48.004;10.902;2022-09-09T01:40:00;1.20;;;1.10;;
7977;SDS011;4034;48.004;10.902;2022-09-09T01:42:26;1.80;;;1.40;;
7977;SDS011;4034;48.004;10.902;2022-09-09T01:44:52;1.07;;;1.07;;
7977;SDS011;4034;48.004;10.902;2022-09-09T01:47:19;1.40;;;1.40;;
7977;SDS011;4034;48.004;10.902;2022-09-09T01:49:45;1.70;;;1.30;;
7977;SDS011;4034;48.004;10.902;2022-09-09T01:52:11;1.50;;;1.40;;
7977;SDS011;4034;48.004;10.902;2022-09-09T01:54:37;4.37;;;1.70;;
7977;SDS011;4034;48.004;10.902;2022-09-09T01:57:08;4.47;;;1.60;;
7977;SDS011;4034;48.004;10.902;2022-09-09T02:02:26;2.20;;;1.50;;
7977;SDS011;4034;48.004;10.902;2022-09-09T02:04:59;1.80;;;1.50;;
7977;SDS011;4034;48.004;10.902;2022-09-09T02:10:24;1.47;;;1.37;;
7977;SDS011;4034;48.004;10.902;2022-09-09T02:12:49;1.50;;;1.50;;
7977;SDS011;4034;48.004;10.902;2022-09-09T02:15:24;1.20;;;1.20;;
7977;SDS011;4034;48.004;10.902;2022-09-09T02:17:52;2.70;;;1.50;;
7977;SDS011;4034;48.004;10.902;2022-09-09T02:20:20;1.80;;;1.70;;
7977;SDS011;4034;48.004;10.902;2022-09-09T02:22:47;1.43;;;1.40;;
7977;SDS011;4034;48.004;10.902;2022-09-09T02:25:15;3.57;;;1.70;;
7977;SDS011;4034;48.004;10.902;2022-09-09T02:27:43;1.73;;;1.63;;
7977;SDS011;4034;48.004;10.902;2022-09-09T02:30:11;1.70;;;1.60;;
7977;SDS011;4034;48.004;10.902;2022-09-09T02:32:37;2.23;;;1.57;;
7977;SDS011;4034;48.004;10.902;2022-09-09T02:35:08;3.43;;;1.90;;
7977;SDS011;4034;48.004;10.902;2022-09-09T02:37:36;1.70;;;1.67;;
7977;SDS011;4034;48.004;10.902;2022-09-09T02:40:03;2.50;;;1.90;;
7977;SDS011;4034;48.004;10.902;2022-09-09T02:42:29;3.20;;;1.90;;
7977;SDS011;4034;48.004;10.902;2022-09-09T02:44:55;2.03;;;1.93;;
7977;SDS011;4034;48.004;10.902;2022-09-09T02:47:26;4.30;;;2.00;;
7977;SDS011;4034;48.004;10.902;2022-09-09T02:50:10;1.63;;;1.53;;
7977;SDS011;4034;48.004;10.902;2022-09-09T02:58:09;2.00;;;1.90;;
7977;SDS011;4034;48.004;10.902;2022-09-09T03:00:37;2.37;;;2.13;;
7977;SDS011;4034;48.004;10.902;2022-09-09T03:03:04;2.03;;;1.93;;
7977;SDS011;4034;48.004;10.902;2022-09-09T03:05:30;1.90;;;1.80;;
7977;SDS011;4034;48.004;10.902;2022-09-09T03:07:57;3.57;;;2.07;;
7977;SDS011;4034;48.004;10.902;2022-09-09T03:10:23;2.23;;;1.93;;
7977;SDS011;4034;48.004;10.902;2022-09-09T03:12:49;2.03;;;1.93;;
7977;SDS011;4034;48.004;10.902;2022-09-09T03:15:15;2.37;;;2.17;;
7977;SDS011;4034;48.004;10.902;2022-09-09T03:17:41;1.73;;;1.73;;
7977;SDS011;4034;48.004;10.902;2022-09-09T03:20:07;3.67;;;1.97;;
7977;SDS011;4034;48.004;10.902;2022-09-09T03:22:34;2.17;;;1.83;;
7977;SDS011;4034;48.004;10.902;2022-09-09T03:25:00;4.73;;;2.40;;
7977;SDS011;4034;48.004;10.902;2022-09-09T03:27:27;2.50;;;2.30;;
7977;SDS011;4034;48.004;10.902;2022-09-09T03:29:53;2.03;;;1.90;;
7977;SDS011;4034;48.004;10.902;2022-09-09T03:32:20;2.40;;;2.10;;
7977;SDS011;4034;48.004;10.902;2022-09-09T03:34:47;2.73;;;1.97;;
7977;SDS011;4034;48.004;10.902;2022-09-09T03:37:14;2.50;;;2.30;;
7977;SDS011;4034;48.004;10.902;2022-09-09T03:39:40;2.33;;;2.10;;
7977;SDS011;4034;48.004;10.902;2022-09-09T03:42:07;2.07;;;1.97;;
7977;SDS011;4034;48.004;10.902;2022-09-09T03:44:33;2.63;;;2.43;;
7977;SDS011;4034;48.004;10.902;2022-09-09T03:46:59;5.43;;;2.20;;
7977;SDS011;4034;48.004;10.902;2022-09-09T03:49:25;3.30;;;2.20;;
7977;SDS011;4034;48.004;10.902;2022-09-09T03:51:53;1.97;;;1.87;;
7977;SDS011;4034;48.004;10.902;2022-09-09T03:54:19;1.93;;;1.70;;
7977;SDS011;4034;48.004;10.902;2022-09-09T03:56:45;2.45;;;1.90;;
7977;SDS011;4034;48.004;10.902;2022-09-09T03:59:11;2.53;;;1.70;;
7977;SDS011;4034;48.004;10.902;2022-09-09T04:01:39;3.43;;;2.20;;
7977;SDS011;4034;48.004;10.902;2022-09-09T04:04:12;2.60;;;1.63;;
7977;SDS011;4034;48.004;10.902;2022-09-09T04:06:38;2.10;;;1.90;;
7977;SDS011;4034;48.004;10.902;2022-09-09T04:09:04;1.70;;;1.60;;
7977;SDS011;4034;48.004;10.902;2022-09-09T04:11:30;1.70;;;1.70;;
7977;SDS011;4034;48.004;10.902;2022-09-09T04:13:56;1.97;;;1.83;;
7977;SDS011;4034;48.004;10.902;2022-09-09T04:16:22;2.60;;;2.40;;
7977;SDS011;4034;48.004;10.902;2022-09-09T04:18:48;2.90;;;1.90;;
7977;SDS011;4034;48.004;10.902;2022-09-09T04:21:14;1.90;;;1.80;;
7977;SDS011;4034;48.004;10.902;2022-09-09T04:23:41;2.13;;;2.03;;
7977;SDS011;4034;48.004;10.902;2022-09-09T04:26:07;3.00;;;1.90;;
7977;SDS011;4034;48.004;10.902;2022-09-09T04:28:34;2.10;;;1.90;;
7977;SDS011;4034;48.004;10.902;2022-09-09T04:33:27;1.63;;;1.53;;
7977;SDS011;4034;48.004;10.902;2022-09-09T04:35:53;1.90;;;1.70;;
7977;SDS011;4034;48.004;10.902;2022-09-09T04:38:19;1.80;;;1.70;;
7977;SDS011;4034;48.004;10.902;2022-09-09T04:40:48;3.40;;;1.93;;
7977;SDS011;4034;48.004;10.902;2022-09-09T04:43:14;1.90;;;1.80;;
7977;SDS011;4034;48.004;10.902;2022-09-09T04:45:41;2.23;;;1.73;;
7977;SDS011;4034;48.004;10.902;2022-09-09T04:48:07;1.50;;;1.37;;
7977;SDS011;4034;48.004;10.902;2022-09-09T04:50:34;1.50;;;1.50;;
7977;SDS011;4034;48.004;10.902;2022-09-09T04:53:01;2.73;;;1.53;;
7977;SDS011;4034;48.004;10.902;2022-09-09T04:55:27;3.17;;;1.53;;
7977;SDS011;4034;48.004;10.902;2022-09-09T04:57:53;3.20;;;1.77;;
7977;SDS011;4034;48.004;10.902;2022-09-09T05:00:19;2.43;;;2.00;;
7977;SDS011;4034;48.004;10.902;2022-09-09T05:02:45;1.40;;;1.40;;
7977;SDS011;4034;48.004;10.902;2022-09-09T05:05:12;1.70;;;1.60;;
7977;SDS011;4034;48.004;10.902;2022-09-09T05:07:38;1.50;;;1.50;;
7977;SDS011;4034;48.004;10.902;2022-09-09T05:10:04;1.47;;;1.47;;
7977;SDS011;4034;48.004;10.902;2022-09-09T05:12:31;3.60;;;1.37;;
7977;SDS011;4034;48.004;10.902;2022-09-09T05:14:57;1.67;;;1.57;;
7977;SDS011;4034;48.004;10.902;2022-09-09T05:17:23;3.30;;;1.73;;
7977;SDS011;4034;48.004;10.902;2022-09-09T05:19:49;2.90;;;1.77;;
7977;SDS011;4034;48.004;10.902;2022-09-09T05:22:18;1.87;;;1.67;;
7977;SDS011;4034;48.004;10.902;2022-09-09T05:24:45;3.67;;;1.83;;
7977;SDS011;4034;48.004;10.902;2022-09-09T05:27:11;2.07;;;1.50;;
7977;SDS011;4034;48.004;10.902;2022-09-09T05:29:37;2.10;;;1.67;;
7977;SDS011;4034;48.004;10.902;2022-09-09T05:32:04;1.80;;;1.70;;
7977;SDS011;4034;48.004;10.902;2022-09-09T05:34:30;1.50;;;1.50;;
7977;SDS011;4034;48.004;10.902;2022-09-09T05:36:56;1.73;;;1.50;;
7977;SDS011;4034;48.004;10.902;2022-09-09T05:39:21;1.40;;;1.40;;
7977;SDS011;4034;48.004;10.902;2022-09-09T05:41:47;1.77;;;1.53;;
7977;SDS011;4034;48.004;10.902;2022-09-09T05:44:13;2.97;;;1.70;;
7977;SDS011;4034;48.004;10.902;2022-09-09T05:46:39;1.50;;;1.50;;
7977;SDS011;4034;48.004;10.902;2022-09-09T05:49:05;2.00;;;1.87;;
7977;SDS011;4034;48.004;10.902;2022-09-09T05:51:32;1.47;;;1.47;;
7977;SDS011;4034;48.004;10.902;2022-09-09T05:53:58;1.90;;;1.40;;
7977;SDS011;4034;48.004;10.902;2022-09-09T05:56:25;3.43;;;1.80;;
7977;SDS011;4034;48.004;10.902;2022-09-09T05:58:51;1.83;;;1.73;;
7977;SDS011;4034;48.004;10.902;2022-09-09T06:01:25;2.03;;;1.90;;
7977;SDS011;4034;48.004;10.902;2022-09-09T06:03:52;2.63;;;1.50;;
7977;SDS011;4034;48.004;10.902;2022-09-09T06:06:19;2.57;;;2.33;;
7977;SDS011;4034;48.004;10.902;2022-09-09T06:08:52;1.73;;;1.63;;
7977;SDS011;4034;48.004;10.902;2022-09-09T06:11:19;1.63;;;1.60;;
7977;SDS011;4034;48.004;10.902;2022-09-09T06:13:46;2.35;;;1.60;;
7977;SDS011;4034;48.004;10.902;2022-09-09T06:16:13;2.80;;;1.70;;
7977;SDS011;4034;48.004;10.902;2022-09-09T06:18:40;1.87;;;1.70;;
7977;SDS011;4034;48.004;10.902;2022-09-09T06:21:07;2.87;;;1.43;;
7977;SDS011;4034;48.004;10.902;2022-09-09T06:23:34;2.10;;;1.77;;
7977;SDS011;4034;48.004;10.902;2022-09-09T06:26:01;2.00;;;1.90;;
7977;SDS011;4034;48.004;10.902;2022-09-09T06:28:28;2.23;;;1.80;;
7977;SDS011;4034;48.004;10.902;2022-09-09T06:30:57;1.90;;;1.77;;
7977;SDS011;4034;48.004;10.902;2022-09-09T06:33:23;1.63;;;1.60;;
7977;SDS011;4034;48.004;10.902;2022-09-09T06:35:53;4.13;;;2.00;;
7977;SDS011;4034;48.004;10.902;2022-09-09T06:38:19;4.07;;;1.73;;
7977;SDS011;4034;48.004;10.902;2022-09-09T06:40:51;1.70;;;1.60;;
7977;SDS011;4034;48.004;10.902;2022-09-09T06:43:17;1.60;;;1.50;;
7977;SDS011;4034;48.004;10.902;2022-09-09T06:45:52;3.27;;;1.93;;
7977;SDS011;4034;48.004;10.902;2022-09-09T06:48:18;2.27;;;2.13;;
7977;SDS011;4034;48.004;10.902;2022-09-09T06:50:44;1.50;;;1.40;;
7977;SDS011;4034;48.004;10.902;2022-09-09T06:53:11;3.13;;;1.63;;
7977;SDS011;4034;48.004;10.902;2022-09-09T06:55:37;1.63;;;1.50;;
7977;SDS011;4034;48.004;10.902;2022-09-09T06:58:08;4.97;;;1.63;;
7977;SDS011;4034;48.004;10.902;2022-09-09T07:00:34;1.30;;;1.30;;
7977;SDS011;4034;48.004;10.902;2022-09-09T07:03:02;2.30;;;1.80;;
7977;SDS011;4034;48.004;10.902;2022-09-09T07:05:28;1.90;;;1.50;;
7977;SDS011;4034;48.004;10.902;2022-09-09T07:07:54;1.70;;;1.60;;
7977;SDS011;4034;48.004;10.902;2022-09-09T07:10:20;1.37;;;1.37;;
7977;SDS011;4034;48.004;10.902;2022-09-09T07:12:50;3.07;;;1.67;;
7977;SDS011;4034;48.004;10.902;2022-09-09T07:15:16;1.60;;;1.60;;
7977;SDS011;4034;48.004;10.902;2022-09-09T07:17:43;1.80;;;1.57;;
7977;SDS011;4034;48.004;10.902;2022-09-09T07:20:09;3.67;;;1.80;;
7977;SDS011;4034;48.004;10.902;2022-09-09T07:22:36;3.57;;;1.53;;
7977;SDS011;4034;48.004;10.902;2022-09-09T07:25:02;1.97;;;1.57;;
7977;SDS011;4034;48.004;10.902;2022-09-09T07:27:28;1.50;;;1.40;;
7977;SDS011;4034;48.004;10.902;2022-09-09T07:29:55;1.50;;;1.40;;
7977;SDS011;4034;48.004;10.902;2022-09-09T07:32:22;1.50;;;1.40;;
7977;SDS011;4034;48.004;10.902;2022-09-09T07:34:48;1.87;;;1.50;;
7977;SDS011;4034;48.004;10.902;2022-09-09T07:37:15;3.37;;;1.13;;
7977;SDS011;4034;48.004;10.902;2022-09-09T07:39:42;1.63;;;1.40;;
7977;SDS011;4034;48.004;10.902;2022-09-09T07:42:08;1.70;;;1.30;;
7977;SDS011;4034;48.004;10.902;2022-09-09T07:44:36;1.30;;;1.30;;
7977;SDS011;4034;48.004;10.902;2022-09-09T07:47:04;1.73;;;1.33;;
7977;SDS011;4034;48.004;10.902;2022-09-09T07:49:30;1.27;;;1.20;;
7977;SDS011;4034;48.004;10.902;2022-09-09T07:51:57;7.80;;;1.70;;
7977;SDS011;4034;48.004;10.902;2022-09-09T07:54:23;1.33;;;1.23;;
7977;SDS011;4034;48.004;10.902;2022-09-09T07:56:50;1.87;;;1.50;;
7977;SDS011;4034;48.004;10.902;2022-09-09T07:59:16;2.60;;;1.60;;
7977;SDS011;4034;48.004;10.902;2022-09-09T08:01:44;1.30;;;1.30;;
7977;SDS011;4034;48.004;10.902;2022-09-09T08:04:12;1.60;;;1.50;;
7977;SDS011;4034;48.004;10.902;2022-09-09T08:06:40;1.40;;;1.40;;
7977;SDS011;4034;48.004;10.902;2022-09-09T08:09:07;1.87;;;1.47;;
7977;SDS011;4034;48.004;10.902;2022-09-09T08:11:34;2.57;;;1.67;;
7977;SDS011;4034;48.004;10.902;2022-09-09T08:14:01;1.37;;;1.37;;
7977;SDS011;4034;48.004;10.902;2022-09-09T08:16:28;1.50;;;1.20;;
7977;SDS011;4034;48.004;10.902;2022-09-09T08:18:55;1.33;;;1.10;;
7977;SDS011;4034;48.004;10.902;2022-09-09T08:21:23;2.00;;;1.33;;
7977;SDS011;4034;48.004;10.902;2022-09-09T08:23:50;2.83;;;1.40;;
7977;SDS011;4034;48.004;10.902;2022-09-09T08:26:18;1.00;;;1.00;;
7977;SDS011;4034;48.004;10.902;2022-09-09T08:28:48;1.00;;;1.00;;
7977;SDS011;4034;48.004;10.902;2022-09-09T08:31:19;1.20;;;1.10;;
7977;SDS011;4034;48.004;10.902;2022-09-09T08:33:46;2.97;;;1.30;;
7977;SDS011;4034;48.004;10.902;2022-09-09T08:36:19;3.03;;;1.40;;
7977;SDS011;4034;48.004;10.902;2022-09-09T08:38:50;2.47;;;1.70;;
7977;SDS011;4034;48.004;10.902;2022-09-09T08:41:35;1.17;;;1.17;;
7977;SDS011;4034;48.004;10.902;2022-09-09T08:44:14;1.10;;;1.10;;
7977;SDS011;4034;48.004;10.902;2022-09-09T08:51:43;1.13;;;1.10;;
7977;SDS011;4034;48.004;10.902;2022-09-09T08:54:09;1.60;;;1.30;;
7977;SDS011;4034;48.004;10.902;2022-09-09T08:56:36;1.20;;;1.10;;
7977;SDS011;4034;48.004;10.902;2022-09-09T08:59:02;1.20;;;1.20;;
7977;SDS011;4034;48.004;10.902;2022-09-09T09:01:39;3.20;;;1.30;;
7977;SDS011;4034;48.004;10.902;2022-09-09T09:12:06;1.13;;;1.13;;
7977;SDS011;4034;48.004;10.902;2022-09-09T09:14:33;1.57;;;1.20;;
7977;SDS011;4034;48.004;10.902;2022-09-09T09:17:01;1.57;;;1.30;;
7977;SDS011;4034;48.004;10.902;2022-09-09T09:19:31;2.27;;;1.00;;
7977;SDS011;4034;48.004;10.902;2022-09-09T09:26:59;1.63;;;1.20;;
7977;SDS011;4034;48.004;10.902;2022-09-09T09:29:30;0.90;;;0.90;;
7977;SDS011;4034;48.004;10.902;2022-09-09T09:31:56;2.00;;;1.17;;
7977;SDS011;4034;48.004;10.902;2022-09-09T09:34:26;2.10;;;1.40;;
7977;SDS011;4034;48.004;10.902;2022-09-09T09:36:54;1.90;;;1.50;;
7977;SDS011;4034;48.004;10.902;2022-09-09T09:39:39;1.90;;;1.00;;
7977;SDS011;4034;48.004;10.902;2022-09-09T09:42:12;2.63;;;1.10;;
7977;SDS011;4034;48.004;10.902;2022-09-09T09:44:39;2.23;;;1.03;;
7977;SDS011;4034;48.004;10.902;2022-09-09T09:47:06;1.10;;;1.10;;
7977;SDS011;4034;48.004;10.902;2022-09-09T09:49:33;1.00;;;1.00;;
7977;SDS011;4034;48.004;10.902;2022-09-09T09:52:02;1.23;;;1.13;;
7977;SDS011;4034;48.004;10.902;2022-09-09T09:54:38;2.27;;;1.20;;
7977;SDS011;4034;48.004;10.902;2022-09-09T09:57:08;1.10;;;1.10;;
7977;SDS011;4034;48.004;10.902;2022-09-09T09:59:35;1.00;;;1.00;;
7977;SDS011;4034;48.004;10.902;2022-09-09T10:02:21;1.77;;;1.07;;
7977;SDS011;4034;48.004;10.902;2022-09-09T10:04:59;1.10;;;1.00;;
7977;SDS011;4034;48.004;10.902;2022-09-09T10:07:26;1.20;;;1.00;;
7977;SDS011;4034;48.004;10.902;2022-09-09T10:09:55;2.60;;;1.00;;
7977;SDS011;4034;48.004;10.902;2022-09-09T10:20:36;0.90;;;0.90;;
7977;SDS011;4034;48.004;10.902;2022-09-09T10:28:33;1.50;;;1.23;;
7977;SDS011;4034;48.004;10.902;2022-09-09T10:36:13;2.60;;;1.33;;
7977;SDS011;4034;48.004;10.902;2022-09-09T10:41:19;0.90;;;0.90;;
7977;SDS011;4034;48.004;10.902;2022-09-09T10:54:34;3.00;;;1.40;;
7977;SDS011;4034;48.004;10.902;2022-09-09T10:57:17;3.00;;;1.20;;
7977;SDS011;4034;48.004;10.902;2022-09-09T10:59:48;1.93;;;1.07;;
7977;SDS011;4034;48.004;10.902;2022-09-09T11:02:17;1.37;;;0.83;;
7977;SDS011;4034;48.004;10.902;2022-09-09T11:04:49;1.60;;;1.40;;
7977;SDS011;4034;48.004;10.902;2022-09-09T11:07:24;2.47;;;1.20;;
7977;SDS011;4034;48.004;10.902;2022-09-09T11:09:52;2.43;;;1.10;;
7977;SDS011;4034;48.004;10.902;2022-09-09T11:12:21;2.63;;;1.10;;
7977;SDS011;4034;48.004;10.902;2022-09-09T11:17:18;2.57;;;1.30;;
7977;SDS011;4034;48.004;10.902;2022-09-09T11:19:46;3.20;;;1.50;;
7977;SDS011;4034;48.004;10.902;2022-09-09T11:24:44;2.70;;;1.43;;
7977;SDS011;4034;48.004;10.902;2022-09-09T11:37:56;4.27;;;1.40;;
7977;SDS011;4034;48.004;10.902;2022-09-09T11:40:27;4.27;;;1.60;;
7977;SDS011;4034;48.004;10.902;2022-09-09T11:45:30;4.60;;;1.83;;
7977;SDS011;4034;48.004;10.902;2022-09-09T11:47:58;1.00;;;0.90;;
7977;SDS011;4034;48.004;10.902;2022-09-09T11:52:51;3.17;;;1.27;;
7977;SDS011;4034;48.004;10.902;2022-09-09T11:55:31;2.63;;;1.30;;
7977;SDS011;4034;48.004;10.902;2022-09-09T11:58:02;4.13;;;1.60;;
7977;SDS011;4034;48.004;10.902;2022-09-09T12:02:58;7.53;;;1.70;;
7977;SDS011;4034;48.004;10.902;2022-09-09T12:05:24;2.03;;;1.13;;
7977;SDS011;4034;48.004;10.902;2022-09-09T12:08:01;1.30;;;1.20;;
7977;SDS011;4034;48.004;10.902;2022-09-09T12:12:54;5.07;;;1.13;;
7977;SDS011;4034;48.004;10.902;2022-09-09T12:15:25;2.73;;;1.20;;
7977;SDS011;4034;48.004;10.902;2022-09-09T12:17:53;0.93;;;0.93;;
7977;SDS011;4034;48.004;10.902;2022-09-09T12:20:30;3.53;;;2.03;;
7977;SDS011;4034;48.004;10.902;2022-09-09T12:30:27;2.63;;;1.23;;
7977;SDS011;4034;48.004;10.902;2022-09-09T12:33:02;2.37;;;1.40;;
7977;SDS011;4034;48.004;10.902;2022-09-09T12:35:28;1.30;;;1.20;;
7977;SDS011;4034;48.004;10.902;2022-09-09T12:37:57;2.47;;;1.33;;
7977;SDS011;4034;48.004;10.902;2022-09-09T12:40:32;2.13;;;1.40;;
7977;SDS011;4034;48.004;10.902;2022-09-09T12:43:00;2.90;;;1.73;;
7977;SDS011;4034;48.004;10.902;2022-09-09T12:45:28;2.17;;;1.20;;
7977;SDS011;4034;48.004;10.902;2022-09-09T12:50:35;0.97;;;0.97;;
7977;SDS011;4034;48.004;10.902;2022-09-09T12:53:10;1.47;;;1.00;;
7977;SDS011;4034;48.004;10.902;2022-09-09T12:55:39;2.73;;;0.90;;
7977;SDS011;4034;48.004;10.902;2022-09-09T12:58:05;0.80;;;0.73;;
7977;SDS011;4034;48.004;10.902;2022-09-09T13:00:32;2.37;;;1.10;;
7977;SDS011;4034;48.004;10.902;2022-09-09T13:03:00;3.17;;;1.30;;
7977;SDS011;4034;48.004;10.902;2022-09-09T13:05:27;2.27;;;1.00;;
7977;SDS011;4034;48.004;10.902;2022-09-09T13:08:03;1.33;;;1.23;;
7977;SDS011;4034;48.004;10.902;2022-09-09T13:10:30;3.43;;;1.00;;
7977;SDS011;4034;48.004;10.902;2022-09-09T13:12:57;1.23;;;1.00;;
7977;SDS011;4034;48.004;10.902;2022-09-09T13:15:25;2.37;;;1.20;;
7977;SDS011;4034;48.004;10.902;2022-09-09T13:17:53;1.20;;;1.10;;
7977;SDS011;4034;48.004;10.902;2022-09-09T13:20:20;1.03;;;1.03;;
7977;SDS011;4034;48.004;10.902;2022-09-09T13:22:47;1.03;;;1.00;;
7977;SDS011;4034;48.004;10.902;2022-09-09T13:25:28;2.37;;;1.20;;
7977;SDS011;4034;48.004;10.902;2022-09-09T13:28:02;3.57;;;1.37;;
7977;SDS011;4034;48.004;10.902;2022-09-09T13:30:30;2.53;;;0.93;;
7977;SDS011;4034;48.004;10.902;2022-09-09T13:35:29;9.43;;;1.40;;
7977;SDS011;4034;48.004;10.902;2022-09-09T13:37:55;2.17;;;1.63;;
7977;SDS011;4034;48.004;10.902;2022-09-09T13:40:22;2.67;;;1.37;;
7977;SDS011;4034;48.004;10.902;2022-09-09T13:42:51;1.43;;;0.90;;
7977;SDS011;4034;48.004;10.902;2022-09-09T13:45:18;1.23;;;1.00;;
7977;SDS011;4034;48.004;10.902;2022-09-09T13:47:48;1.40;;;1.00;;
7977;SDS011;4034;48.004;10.902;2022-09-09T13:52:50;1.77;;;0.97;;
7977;SDS011;4034;48.004;10.902;2022-09-09T13:55:16;1.07;;;1.00;;
7977;SDS011;4034;48.004;10.902;2022-09-09T13:57:59;1.63;;;0.90;;
7977;SDS011;4034;48.004;10.902;2022-09-09T14:00:32;1.67;;;1.10;;
7977;SDS011;4034;48.004;10.902;2022-09-09T14:02:58;2.60;;;1.17;;
7977;SDS011;4034;48.004;10.902;2022-09-09T14:05:28;1.43;;;1.10;;
7977;SDS011;4034;48.004;10.902;2022-09-09T14:07:54;1.70;;;1.00;;
7977;SDS011;4034;48.004;10.902;2022-09-09T14:10:20;1.40;;;1.07;;
7977;SDS011;4034;48.004;10.902;2022-09-09T14:12:47;1.03;;;0.83;;
7977;SDS011;4034;48.004;10.902;2022-09-09T14:15:13;3.03;;;1.10;;
7977;SDS011;4034;48.004;10.902;2022-09-09T14:17:39;0.80;;;0.80;;
7977;SDS011;4034;48.004;10.902;2022-09-09T14:20:05;1.03;;;0.97;;
7977;SDS011;4034;48.004;10.902;2022-09-09T14:22:36;1.90;;;1.23;;
7977;SDS011;4034;48.004;10.902;2022-09-09T14:25:04;1.03;;;1.00;;
7977;SDS011;4034;48.004;10.902;2022-09-09T14:27:31;1.93;;;1.00;;
7977;SDS011;4034;48.004;10.902;2022-09-09T14:29:57;1.63;;;1.00;;
7977;SDS011;4034;48.004;10.902;2022-09-09T14:32:24;1.03;;;0.83;;
7977;SDS011;4034;48.004;10.902;2022-09-09T14:34:51;2.60;;;1.30;;
7977;SDS011;4034;48.004;10.902;2022-09-09T14:37:17;1.47;;;0.90;;
7977;SDS011;4034;48.004;10.902;2022-09-09T14:39:43;1.37;;;1.17;;
7977;SDS011;4034;48.004;10.902;2022-09-09T14:42:12;1.13;;;0.83;;
7977;SDS011;4034;48.004;10.902;2022-09-09T14:44:38;3.10;;;1.10;;
7977;SDS011;4034;48.004;10.902;2022-09-09T14:47:05;0.97;;;0.93;;
7977;SDS011;4034;48.004;10.902;2022-09-09T14:49:33;1.43;;;0.90;;
7977;SDS011;4034;48.004;10.902;2022-09-09T14:51:59;2.83;;;0.90;;
7977;SDS011;4034;48.004;10.902;2022-09-09T14:54:25;2.03;;;1.00;;
7977;SDS011;4034;48.004;10.902;2022-09-09T14:56:51;1.27;;;1.17;;
7977;SDS011;4034;48.004;10.902;2022-09-09T14:59:17;1.60;;;1.13;;
7977;SDS011;4034;48.004;10.902;2022-09-09T15:01:43;1.43;;;0.80;;
7977;SDS011;4034;48.004;10.902;2022-09-09T15:04:10;1.63;;;1.10;;
7977;SDS011;4034;48.004;10.902;2022-09-09T15:06:37;1.00;;;1.00;;
7977;SDS011;4034;48.004;10.902;2022-09-09T15:09:04;0.70;;;0.70;;
7977;SDS011;4034;48.004;10.902;2022-09-09T15:11:31;2.50;;;1.10;;
7977;SDS011;4034;48.004;10.902;2022-09-09T15:14:02;2.57;;;1.43;;
7977;SDS011;4034;48.004;10.902;2022-09-09T15:16:28;1.00;;;0.90;;
7977;SDS011;4034;48.004;10.902;2022-09-09T15:18:56;2.67;;;1.07;;
7977;SDS011;4034;48.004;10.902;2022-09-09T15:21:23;1.40;;;1.30;;
7977;SDS011;4034;48.004;10.902;2022-09-09T15:23:50;1.80;;;0.90;;
7977;SDS011;4034;48.004;10.902;2022-09-09T15:26:16;1.13;;;0.80;;
7977;SDS011;4034;48.004;10.902;2022-09-09T15:28:43;0.80;;;0.80;;
7977;SDS011;4034;48.004;10.902;2022-09-09T15:31:13;2.10;;;0.70;;
7977;SDS011;4034;48.004;10.902;2022-09-09T15:33:45;1.37;;;0.93;;
7977;SDS011;4034;48.004;10.902;2022-09-09T15:36:17;0.80;;;0.80;;
7977;SDS011;4034;48.004;10.902;2022-09-09T15:38:43;1.50;;;0.90;;
7977;SDS011;4034;48.004;10.902;2022-09-09T15:41:09;1.20;;;0.97;;
7977;SDS011;4034;48.004;10.902;2022-09-09T15:43:36;1.47;;;1.10;;
7977;SDS011;4034;48.004;10.902;2022-09-09T15:46:24;1.00;;;1.00;;
7977;SDS011;4034;48.004;10.902;2022-09-09T15:48:52;0.77;;;0.67;;
7977;SDS011;4034;48.004;10.902;2022-09-09T15:51:19;1.23;;;1.13;;
7977;SDS011;4034;48.004;10.902;2022-09-09T15:53:45;0.93;;;0.93;;
7977;SDS011;4034;48.004;10.902;2022-09-09T15:56:11;1.90;;;0.90;;
7977;SDS011;4034;48.004;10.902;2022-09-09T15:58:37;0.90;;;0.90;;
7977;SDS011;4034;48.004;10.902;2022-09-09T16:01:03;1.70;;;1.10;;
7977;SDS011;4034;48.004;10.902;2022-09-09T16:03:30;1.00;;;1.00;;
7977;SDS011;4034;48.004;10.902;2022-09-09T16:05:56;2.20;;;1.00;;
7977;SDS011;4034;48.004;10.902;2022-09-09T16:08:22;1.13;;;1.00;;
7977;SDS011;4034;48.004;10.902;2022-09-09T16:10:48;1.90;;;1.10;;
7977;SDS011;4034;48.004;10.902;2022-09-09T16:13:14;1.77;;;1.03;;
7977;SDS011;4034;48.004;10.902;2022-09-09T16:15:40;1.83;;;1.07;;
7977;SDS011;4034;48.004;10.902;2022-09-09T16:18:06;0.87;;;0.73;;
7977;SDS011;4034;48.004;10.902;2022-09-09T16:20:32;3.70;;;1.50;;
7977;SDS011;4034;48.004;10.902;2022-09-09T16:22:57;0.80;;;0.80;;
7977;SDS011;4034;48.004;10.902;2022-09-09T16:25:26;1.93;;;1.20;;
7977;SDS011;4034;48.004;10.902;2022-09-09T16:27:52;1.00;;;1.00;;
7977;SDS011;4034;48.004;10.902;2022-09-09T16:30:18;2.47;;;1.03;;
7977;SDS011;4034;48.004;10.902;2022-09-09T16:32:44;1.43;;;1.10;;
7977;SDS011;4034;48.004;10.902;2022-09-09T16:35:10;1.83;;;1.03;;
7977;SDS011;4034;48.004;10.902;2022-09-09T16:37:36;1.03;;;1.00;;
7977;SDS011;4034;48.004;10.902;2022-09-09T16:40:02;1.83;;;1.10;;
7977;SDS011;4034;48.004;10.902;2022-09-09T16:42:28;0.90;;;0.90;;
7977;SDS011;4034;48.004;10.902;2022-09-09T16:44:54;1.23;;;1.13;;
7977;SDS011;4034;48.004;10.902;2022-09-09T16:47:20;1.13;;;1.10;;
7977;SDS011;4034;48.004;10.902;2022-09-09T16:49:46;1.10;;;1.00;;
7977;SDS011;4034;48.004;10.902;2022-09-09T16:52:13;2.07;;;1.10;;
7977;SDS011;4034;48.004;10.902;2022-09-09T16:54:39;1.33;;;1.03;;
7977;SDS011;4034;48.004;10.902;2022-09-09T16:57:05;1.27;;;1.17;;
7977;SDS011;4034;48.004;10.902;2022-09-09T16:59:31;3.43;;;1.13;;
7977;SDS011;4034;48.004;10.902;2022-09-09T17:01:58;1.20;;;1.20;;
7977;SDS011;4034;48.004;10.902;2022-09-09T17:04:27;1.40;;;0.90;;
7977;SDS011;4034;48.004;10.902;2022-09-09T17:06:54;1.70;;;1.10;;
7977;SDS011;4034;48.004;10.902;2022-09-09T17:09:22;0.83;;;0.83;;
7977;SDS011;4034;48.004;10.902;2022-09-09T17:11:48;1.07;;;1.00;;
7977;SDS011;4034;48.004;10.902;2022-09-09T17:14:18;1.17;;;1.17;;
7977;SDS011;4034;48.004;10.902;2022-09-09T17:16:44;1.17;;;1.07;;
7977;SDS011;4034;48.004;10.902;2022-09-09T17:19:11;1.00;;;1.00;;
7977;SDS011;4034;48.004;10.902;2022-09-09T17:21:37;1.63;;;1.53;;